createdAt,value
2023-04-28T00:02:16.838Z,8.1
2023-04-28T00:04:45.092Z,7.7
2023-04-28T00:07:13.344Z,8.3
2023-04-28T00:08:28.075Z,7.4
2023-04-28T00:09:41.625Z,7.9
2023-04-28T00:12:09.878Z,8.3
2023-04-28T00:14:38.141Z,8.2
2023-04-28T00:17:06.400Z,8.6
2023-04-28T00:19:34.666Z,7.1
2023-04-28T00:22:02.912Z,7.7
2023-04-28T00:24:31.167Z,7.9
2023-04-28T00:29:27.686Z,7.3
2023-04-28T00:31:55.942Z,7.6
2023-04-28T00:33:10.676Z,7.7
2023-04-28T00:34:24.218Z,7.5
2023-04-28T00:36:52.482Z,7
2023-04-28T00:39:20.735Z,7.3
2023-04-28T00:41:48.987Z,7.7
2023-04-28T00:44:17.250Z,7.7
2023-04-28T00:46:45.509Z,7.6
2023-04-28T00:49:13.768Z,7.7
2023-04-28T00:51:42.017Z,7.3
2023-04-28T00:54:10.276Z,8.1
2023-04-28T00:56:38.541Z,8.1
2023-04-28T00:59:06.795Z,7.6
2023-04-28T01:01:35.057Z,8.8
2023-04-28T01:04:03.308Z,8.8
2023-04-28T01:06:31.566Z,9.1
2023-04-28T01:08:59.829Z,9.1
2023-04-28T01:11:28.082Z,9.9
2023-04-28T01:13:56.339Z,11.7
2023-04-28T01:16:24.601Z,13.2
2023-04-28T01:18:52.853Z,14.3
2023-04-28T01:21:21.109Z,15.8
2023-04-28T01:22:35.864Z,15.8
2023-04-28T01:23:49.412Z,17.2
2023-04-28T01:26:17.660Z,17.6
2023-04-28T01:31:14.175Z,16.4
2023-04-28T01:33:42.435Z,16.6
2023-04-28T01:36:10.690Z,16.1
2023-04-28T01:38:38.950Z,15.1
2023-04-28T01:41:07.211Z,15.8
2023-04-28T01:43:35.461Z,15.3
2023-04-28T01:46:03.725Z,16.1
2023-04-28T01:47:18.454Z,14.8
2023-04-28T01:48:31.999Z,15.2
2023-04-28T01:51:00.258Z,15.8
2023-04-28T01:53:28.516Z,14.7
2023-04-28T01:55:56.771Z,13.3
2023-04-28T01:58:25.028Z,13.6
2023-04-28T02:03:21.543Z,11.2
2023-04-28T02:05:49.801Z,11.9
2023-04-28T02:08:18.055Z,12.4
2023-04-28T02:10:46.311Z,11.7
2023-04-28T02:12:01.043Z,12.5
2023-04-28T02:13:14.591Z,13.2
2023-04-28T02:15:42.847Z,12.2
2023-04-28T02:18:11.105Z,11.9
2023-04-28T02:20:39.367Z,12.2
2023-04-28T02:23:07.628Z,12.8
2023-04-28T02:25:35.881Z,11.9
2023-04-28T02:28:04.138Z,13.4
2023-04-28T02:30:32.400Z,12.7
2023-04-28T02:35:28.908Z,13.6
2023-04-28T02:36:43.638Z,13.1
2023-04-28T02:37:57.187Z,13.1
2023-04-28T02:40:25.446Z,13.9
2023-04-28T02:42:53.702Z,13.2
2023-04-28T02:45:21.960Z,13.9
2023-04-28T02:47:50.218Z,13.3
2023-04-28T02:50:18.467Z,14.4
2023-04-28T02:52:46.737Z,15.3
2023-04-28T02:55:14.983Z,15.5
2023-04-28T02:57:43.244Z,16.2
2023-04-28T03:00:11.499Z,15.8
2023-04-28T03:01:26.230Z,15.2
2023-04-28T03:05:08.290Z,16.2
2023-04-28T03:07:36.522Z,16.4
2023-04-28T03:10:04.784Z,15.4
2023-04-28T03:12:33.040Z,16.2
2023-04-28T03:15:01.298Z,15.1
2023-04-28T03:17:29.556Z,15.5
2023-04-28T03:19:57.815Z,15.4
2023-04-28T03:22:26.065Z,14.7
2023-04-28T03:24:54.329Z,15.3
2023-04-28T03:26:09.059Z,15.3
2023-04-28T03:27:22.605Z,15
2023-04-28T03:29:50.864Z,14
2023-04-28T03:32:19.119Z,13.5
2023-04-28T03:37:15.627Z,14.4
2023-04-28T03:39:43.887Z,14.3
2023-04-28T03:42:12.143Z,14.4
2023-04-28T03:44:40.407Z,14.1
2023-04-28T03:47:08.657Z,13.3
2023-04-28T03:49:36.920Z,14.1
2023-04-28T03:50:51.652Z,14.7
2023-04-28T03:52:05.198Z,14.9
2023-04-28T03:54:33.454Z,15
2023-04-28T03:57:01.712Z,15.5
2023-04-28T03:59:29.963Z,15.1
2023-04-28T04:01:58.227Z,14.8
2023-04-28T04:04:26.486Z,14.8
2023-04-28T04:09:22.994Z,14.8
2023-04-28T04:11:51.257Z,14.6
2023-04-28T04:14:19.510Z,14.6
2023-04-28T04:15:34.242Z,15.6
2023-04-28T04:16:47.793Z,15.5
2023-04-28T04:19:16.046Z,16.1
2023-04-28T04:21:44.300Z,15.6
2023-04-28T04:24:12.557Z,16.6
2023-04-28T04:26:40.822Z,15.4
2023-04-28T04:29:09.080Z,15.7
2023-04-28T04:31:37.330Z,15.3
2023-04-28T04:34:05.596Z,15.2
2023-04-28T04:36:33.850Z,15.1
2023-04-28T04:40:16.814Z,14.8
2023-04-28T04:41:30.360Z,14
2023-04-28T04:43:58.623Z,14.3
2023-04-28T04:46:26.879Z,14.5
2023-04-28T04:48:55.133Z,14.3
2023-04-28T04:51:23.394Z,13.6
2023-04-28T04:53:51.646Z,14.7
2023-04-28T04:56:19.901Z,14.2
2023-04-28T04:58:48.162Z,14.3
2023-04-28T05:01:16.416Z,14.3
2023-04-28T05:03:44.680Z,13.2
2023-04-28T05:04:59.406Z,13.4
2023-04-28T05:06:12.950Z,13.3
2023-04-28T05:11:09.464Z,13.5
2023-04-28T05:13:37.727Z,13.1
2023-04-28T05:16:05.977Z,12.7
2023-04-28T05:18:34.236Z,12.5
2023-04-28T05:21:02.494Z,12.1
2023-04-28T05:23:30.754Z,11.6
2023-04-28T05:25:59.005Z,11.9
2023-04-28T05:28:27.265Z,12.1
2023-04-28T05:29:41.992Z,11.5
2023-04-28T05:30:55.542Z,11
2023-04-28T05:33:23.804Z,10.9
2023-04-28T05:35:52.061Z,9.9
2023-04-28T05:38:20.335Z,10.7
2023-04-28T05:43:16.841Z,10.2
2023-04-28T05:45:45.104Z,10.5
2023-04-28T05:48:13.356Z,10.2
2023-04-28T05:50:41.621Z,9.2
2023-04-28T05:53:09.880Z,9.8
2023-04-28T05:54:24.601Z,8.5
2023-04-28T05:55:38.151Z,8.9
2023-04-28T05:58:06.407Z,9.3
2023-04-28T06:00:34.661Z,8.3
2023-04-28T06:03:02.919Z,8.7
2023-04-28T06:05:31.180Z,8.8
2023-04-28T06:07:59.438Z,8.2
2023-04-28T06:10:27.691Z,8.2
2023-04-28T06:15:24.201Z,8.4
2023-04-28T06:17:52.458Z,8.3
2023-04-28T06:19:07.192Z,7.8
2023-04-28T06:20:20.736Z,7.2
2023-04-28T06:22:48.990Z,7.1
2023-04-28T06:25:17.252Z,7.1
2023-04-28T06:27:45.508Z,6.9
2023-04-28T06:30:13.768Z,6.2
2023-04-28T06:32:42.024Z,6.4
2023-04-28T06:35:10.284Z,5.7
2023-04-28T06:37:38.529Z,6
2023-04-28T06:40:06.793Z,5.5
2023-04-28T06:42:35.049Z,6.2
2023-04-28T06:45:03.308Z,5.4
2023-04-28T06:47:31.558Z,5.6
2023-04-28T06:49:59.819Z,5.3
2023-04-28T06:52:28.080Z,5.3
2023-04-28T06:54:56.338Z,5.1
2023-04-28T06:57:24.592Z,5.5
2023-04-28T06:59:52.845Z,5.4
2023-04-28T07:02:21.106Z,5.4
2023-04-28T07:04:49.357Z,5
2023-04-28T07:07:17.621Z,4.4
2023-04-28T07:08:32.362Z,4.9
2023-04-28T07:09:45.916Z,4.8
2023-04-28T07:12:14.168Z,4.5
2023-04-28T07:17:10.686Z,4.7
2023-04-28T07:19:38.939Z,4.8
2023-04-28T07:22:07.198Z,5
2023-04-28T07:24:35.456Z,5.3
2023-04-28T07:27:03.707Z,5.3
2023-04-28T07:29:31.965Z,5.1
2023-04-28T07:32:00.225Z,4.4
2023-04-28T07:33:14.953Z,4.4
2023-04-28T07:34:28.497Z,4.1
2023-04-28T07:36:56.751Z,4
2023-04-28T07:39:25.010Z,3.5
2023-04-28T07:41:53.265Z,4.1
2023-04-28T07:44:21.524Z,3.7
2023-04-28T07:49:18.036Z,3.8
2023-04-28T07:51:46.293Z,4.1
2023-04-28T07:54:14.553Z,3.5
2023-04-28T07:56:42.812Z,3.6
2023-04-28T07:57:57.539Z,3.5
2023-04-28T07:59:11.090Z,3.4
2023-04-28T08:01:39.345Z,3.8
2023-04-28T08:04:07.601Z,3.9
2023-04-28T08:06:35.862Z,3.2
2023-04-28T08:09:04.116Z,3.3
2023-04-28T08:11:32.368Z,3
2023-04-28T08:14:00.630Z,3.5
2023-04-28T08:16:28.890Z,3.5
2023-04-28T08:21:25.403Z,3.5
2023-04-28T08:22:40.125Z,2.9
2023-04-28T08:23:53.671Z,2.7
2023-04-28T08:26:21.932Z,2.8
2023-04-28T08:28:50.190Z,2.7
2023-04-28T08:31:18.450Z,2.9
2023-04-28T08:33:46.703Z,2.7
2023-04-28T08:36:14.956Z,2.8
2023-04-28T08:38:43.216Z,2.6
2023-04-28T08:41:11.475Z,3
2023-04-28T08:43:39.729Z,2.8
2023-04-28T08:46:07.984Z,3
2023-04-28T08:47:22.717Z,2.9
2023-04-28T08:51:04.743Z,2.7
2023-04-28T08:53:33.002Z,2.6
2023-04-28T08:56:01.261Z,2.9
2023-04-28T08:58:29.516Z,3.1
2023-04-28T09:00:57.778Z,3
2023-04-28T09:03:26.028Z,3
2023-04-28T09:05:54.282Z,3
2023-04-28T09:08:22.539Z,2.6
2023-04-28T09:10:50.804Z,2.9
2023-04-28T09:12:05.528Z,2.9
2023-04-28T09:13:19.072Z,3
2023-04-28T09:15:47.335Z,3
2023-04-28T09:18:15.595Z,3
2023-04-28T09:23:12.102Z,3.7
2023-04-28T09:25:40.364Z,3.4
2023-04-28T09:28:08.614Z,2.9
2023-04-28T09:30:36.872Z,3
2023-04-28T09:33:05.131Z,3
2023-04-28T09:35:33.389Z,3.5
2023-04-28T09:36:48.113Z,3.2
2023-04-28T09:38:01.661Z,3
2023-04-28T09:40:29.915Z,3.2
2023-04-28T09:42:58.176Z,2.8
2023-04-28T09:45:26.433Z,3
2023-04-28T09:47:54.691Z,3.3
2023-04-28T09:50:22.947Z,3.4
2023-04-28T09:55:19.462Z,3
2023-04-28T09:57:47.713Z,2.8
2023-04-28T10:00:15.975Z,2.9
2023-04-28T10:01:30.699Z,3.1
2023-04-28T10:02:44.249Z,2.9
2023-04-28T10:05:12.512Z,2.9
2023-04-28T10:07:40.762Z,3.1
2023-04-28T10:10:09.022Z,3.1
2023-04-28T10:12:37.282Z,3.3
2023-04-28T10:15:05.532Z,3.4
2023-04-28T10:17:33.790Z,3.4
2023-04-28T10:20:02.048Z,3.3
2023-04-28T10:22:30.311Z,3.1
2023-04-28T10:26:13.293Z,3.6
2023-04-28T10:27:26.842Z,3.2
2023-04-28T10:29:55.094Z,3.3
2023-04-28T10:32:23.351Z,3.6
2023-04-28T10:34:51.615Z,3.9
2023-04-28T10:37:19.871Z,3.8
2023-04-28T10:39:48.119Z,3.8
2023-04-28T10:42:16.376Z,3.9
2023-04-28T10:44:44.635Z,4.4
2023-04-28T10:47:12.892Z,4
2023-04-28T10:49:41.156Z,4.4
2023-04-28T10:50:55.879Z,4.1
2023-04-28T10:52:09.428Z,4.4
2023-04-28T10:57:05.944Z,4.3
2023-04-28T10:59:34.197Z,3.9
2023-04-28T11:02:02.451Z,3.9
2023-04-28T11:04:30.708Z,4.1
2023-04-28T11:06:58.965Z,4
2023-04-28T11:09:27.223Z,3.9
2023-04-28T11:11:55.484Z,3.5
2023-04-28T11:14:23.744Z,3.6
2023-04-28T11:15:38.466Z,3.9
2023-04-28T11:16:52.016Z,3.2
2023-04-28T11:19:20.269Z,3.9
2023-04-28T11:21:48.529Z,3.9
2023-04-28T11:24:16.788Z,4.3
2023-04-28T11:29:13.305Z,4
2023-04-28T11:31:41.561Z,4
2023-04-28T11:34:09.813Z,4.1
2023-04-28T11:36:38.072Z,4.3
2023-04-28T11:39:06.346Z,4.5
2023-04-28T11:40:21.071Z,4.4
2023-04-28T11:41:34.616Z,4.1
2023-04-28T11:44:02.878Z,4.3
2023-04-28T11:46:31.136Z,4.2
2023-04-28T11:48:59.385Z,4.5
2023-04-28T11:51:27.642Z,4.2
2023-04-28T11:53:55.904Z,4.3
2023-04-28T11:56:24.165Z,3.9
2023-04-28T12:01:20.670Z,3.9
2023-04-28T12:03:48.933Z,4.1
2023-04-28T12:05:03.656Z,4
2023-04-28T12:06:17.212Z,4
2023-04-28T12:08:45.464Z,4
2023-04-28T12:11:13.717Z,3.8
2023-04-28T12:13:41.981Z,3.9
2023-04-28T12:16:10.236Z,4
2023-04-28T12:18:38.494Z,3.9
2023-04-28T12:21:06.742Z,4.2
2023-04-28T12:23:35.002Z,3.8
2023-04-28T12:26:03.264Z,3.7
2023-04-28T12:28:31.518Z,3.5
2023-04-28T12:30:59.775Z,3.9
2023-04-28T12:33:28.035Z,3.9
2023-04-28T12:35:56.291Z,3.2
2023-04-28T12:38:24.523Z,3.9
2023-04-28T12:40:52.780Z,4.2
2023-04-28T12:43:21.043Z,3.8
2023-04-28T12:45:49.296Z,3.8
2023-04-28T12:48:17.556Z,3.4
2023-04-28T12:50:45.806Z,4.2
2023-04-28T12:53:14.066Z,3.6
2023-04-28T12:54:28.816Z,3.8
2023-04-28T12:55:42.364Z,3.7
2023-04-28T12:58:10.614Z,4
2023-04-28T13:03:07.132Z,3.6
2023-04-28T13:05:35.387Z,3.6
2023-04-28T13:08:03.647Z,4.6
2023-04-28T13:10:31.902Z,4
2023-04-28T13:13:00.160Z,3.8
2023-04-28T13:15:28.416Z,3.8
2023-04-28T13:17:56.670Z,3.7
2023-04-28T13:19:11.401Z,3.7
2023-04-28T13:20:24.951Z,3.9
2023-04-28T13:22:53.210Z,3.5
2023-04-28T13:25:21.464Z,4.3
2023-04-28T13:27:49.718Z,3.5
2023-04-28T13:30:17.975Z,4.2
2023-04-28T13:35:14.489Z,4.2
2023-04-28T13:37:42.745Z,3.7
2023-04-28T13:40:11.005Z,4
2023-04-28T13:42:39.266Z,4.1
2023-04-28T13:43:53.990Z,3.8
2023-04-28T13:45:07.542Z,3.8
2023-04-28T13:47:35.800Z,4.2
2023-04-28T13:50:04.056Z,4
2023-04-28T13:52:32.310Z,3.8
2023-04-28T13:55:00.569Z,4.5
2023-04-28T13:57:28.819Z,4.1
2023-04-28T13:59:57.076Z,3.7
2023-04-28T14:02:25.341Z,4.1
2023-04-28T14:07:21.849Z,4.4
2023-04-28T14:08:36.577Z,4.3
2023-04-28T14:09:50.126Z,4.5
2023-04-28T14:12:18.381Z,4.6
2023-04-28T14:14:46.645Z,4.6
2023-04-28T14:17:14.899Z,4
2023-04-28T14:19:43.151Z,4.3
2023-04-28T14:22:11.409Z,4.7
2023-04-28T14:24:39.666Z,4.6
2023-04-28T14:27:07.930Z,4.7
2023-04-28T14:29:36.186Z,4.7
2023-04-28T14:32:04.440Z,5.3
2023-04-28T14:33:19.164Z,4.6
2023-04-28T14:37:01.204Z,5
2023-04-28T14:39:29.463Z,5.4
2023-04-28T14:41:57.717Z,5.2
2023-04-28T14:44:25.970Z,5.3
2023-04-28T14:46:54.231Z,5.5
2023-04-28T14:49:22.483Z,5.2
2023-04-28T14:51:50.745Z,5.3
2023-04-28T14:54:18.995Z,5.4
2023-04-28T14:56:47.253Z,5.1
2023-04-28T14:58:01.983Z,5.1
2023-04-28T14:59:15.529Z,5
2023-04-28T15:01:43.788Z,5.3
2023-04-28T15:04:12.042Z,5.3
2023-04-28T15:09:08.562Z,5.4
2023-04-28T15:11:36.810Z,6.6
2023-04-28T15:14:05.074Z,5.8
2023-04-28T15:16:33.330Z,5.8
2023-04-28T15:19:01.580Z,5.3
2023-04-28T15:21:29.838Z,5.3
2023-04-28T15:22:44.570Z,5.7
2023-04-28T15:23:58.119Z,6
2023-04-28T15:26:26.376Z,5.9
2023-04-28T15:28:54.631Z,6
2023-04-28T15:31:22.885Z,5.7
2023-04-28T15:33:51.145Z,5.5
2023-04-28T15:36:19.401Z,6.2
2023-04-28T15:41:15.906Z,6.1
2023-04-28T15:43:44.162Z,5.6
2023-04-28T15:46:12.426Z,6.2
2023-04-28T15:47:27.155Z,6.2
2023-04-28T15:48:40.704Z,6.3
2023-04-28T15:51:08.957Z,6.2
2023-04-28T15:53:37.216Z,6.9
2023-04-28T15:56:05.471Z,6.6
2023-04-28T15:58:33.724Z,6.6
2023-04-28T16:01:01.982Z,6.2
2023-04-28T16:03:30.239Z,6.2
2023-04-28T16:05:58.492Z,6.3
2023-04-28T16:08:26.750Z,6.7
2023-04-28T16:12:09.735Z,6.1
2023-04-28T16:13:23.281Z,6.2
2023-04-28T16:15:51.542Z,7.3
2023-04-28T16:18:19.798Z,6.5
2023-04-28T16:20:48.052Z,6.6
2023-04-28T16:23:16.316Z,6.4
2023-04-28T16:25:44.568Z,6.6
2023-04-28T16:28:12.828Z,6.7
2023-04-28T16:30:41.085Z,6.7
2023-04-28T16:33:09.339Z,6.7
2023-04-28T16:35:37.598Z,6.9
2023-04-28T16:36:52.323Z,7.2
2023-04-28T16:38:05.871Z,7.4
2023-04-28T16:43:02.387Z,7.6
2023-04-28T16:45:30.640Z,7.7
2023-04-28T16:47:58.896Z,8.8
2023-04-28T16:50:27.150Z,8.8
2023-04-28T16:52:55.415Z,8.3
2023-04-28T16:55:23.663Z,7.3
2023-04-28T16:57:51.921Z,7.1
2023-04-28T17:00:20.183Z,7.3
2023-04-28T17:01:34.913Z,7.3
2023-04-28T17:02:48.459Z,7.4
2023-04-28T17:05:16.713Z,7.3
2023-04-28T17:07:44.971Z,7.3
2023-04-28T17:10:13.224Z,6.8
2023-04-28T17:15:09.738Z,7
2023-04-28T17:17:37.998Z,6.6
2023-04-28T17:20:06.262Z,6.5
2023-04-28T17:22:34.503Z,7.2
2023-04-28T17:25:02.765Z,8.6
2023-04-28T17:26:17.497Z,9.6
2023-04-28T17:27:31.041Z,9.6
2023-04-28T17:29:59.300Z,9.4
2023-04-28T17:32:27.558Z,9
2023-04-28T17:34:55.813Z,7.9
2023-04-28T17:37:24.066Z,8.3
2023-04-28T17:39:52.327Z,7.8
2023-04-28T17:42:20.581Z,8.1
2023-04-28T17:47:17.092Z,8.7
2023-04-28T17:49:45.345Z,7.9
2023-04-28T17:51:00.074Z,9
2023-04-28T17:52:13.625Z,8.4
2023-04-28T17:54:41.884Z,8.7
2023-04-28T17:57:10.143Z,8.2
2023-04-28T17:59:38.395Z,8.6
2023-04-28T18:02:06.658Z,8.6
2023-04-28T18:04:34.906Z,8.7
2023-04-28T18:07:03.166Z,9.1
2023-04-28T18:09:31.429Z,8.8
2023-04-28T18:11:59.678Z,8.6
2023-04-28T18:14:27.943Z,8.9
2023-04-28T18:16:56.193Z,9.6
2023-04-28T18:19:24.457Z,8.8
2023-04-28T18:21:52.712Z,8.5
2023-04-28T18:24:20.972Z,8.9
2023-04-28T18:26:49.236Z,8.4
2023-04-28T18:29:17.486Z,9.3
2023-04-28T18:31:45.734Z,9.4
2023-04-28T18:34:14.002Z,12
2023-04-28T18:36:42.251Z,11.7
2023-04-28T18:39:10.512Z,11.8
2023-04-28T18:40:25.263Z,11.7
2023-04-28T18:41:38.802Z,11.1
2023-04-28T18:44:07.062Z,11.1
2023-04-28T18:49:03.580Z,10.2
2023-04-28T18:51:31.830Z,9.4
2023-04-28T18:54:00.092Z,10
2023-04-28T18:56:28.350Z,9.8
2023-04-28T18:58:56.601Z,9
2023-04-28T19:01:24.861Z,9.3
2023-04-28T19:03:53.116Z,9.7
2023-04-28T19:05:07.851Z,9.1
2023-04-28T19:06:21.390Z,9.4
2023-04-28T19:08:49.645Z,9.4
2023-04-28T19:11:17.910Z,9.7
2023-04-28T19:13:46.162Z,9.3
2023-04-28T19:16:14.420Z,9.5
2023-04-28T19:21:10.932Z,9.7
2023-04-28T19:23:39.191Z,9.8
2023-04-28T19:26:07.444Z,10.5
2023-04-28T19:28:35.698Z,9.8
2023-04-28T19:29:50.434Z,10
2023-04-28T19:31:03.976Z,9.4
2023-04-28T19:33:32.239Z,10.3
2023-04-28T19:36:00.490Z,9.5
2023-04-28T19:38:28.745Z,10.6
2023-04-28T19:40:57.001Z,10.5
2023-04-28T19:43:25.263Z,11.2
2023-04-28T19:45:53.520Z,11.4
2023-04-28T19:48:21.777Z,11.3
2023-04-28T19:53:18.287Z,10.4
2023-04-28T19:54:33.016Z,11.1
2023-04-28T19:55:46.565Z,10.9
2023-04-28T19:58:14.819Z,11.1
2023-04-28T20:00:43.075Z,10.9
2023-04-28T20:03:11.330Z,11
2023-04-28T20:05:39.593Z,11.6
2023-04-28T20:08:07.847Z,11.1
2023-04-28T20:10:36.108Z,10.8
2023-04-28T20:13:04.359Z,10.8
2023-04-28T20:15:32.620Z,11.4
2023-04-28T20:18:00.871Z,10.8
2023-04-28T20:19:15.602Z,11.9
2023-04-28T20:22:57.634Z,11.1
2023-04-28T20:25:25.895Z,11.3
2023-04-28T20:27:54.153Z,12
2023-04-28T20:30:22.409Z,12
2023-04-28T20:32:50.663Z,12.9
2023-04-28T20:35:18.921Z,13
2023-04-28T20:37:47.178Z,12.9
2023-04-28T20:40:15.436Z,12.7
2023-04-28T20:42:43.686Z,12.7
2023-04-28T20:43:58.420Z,12.5
2023-04-28T20:45:11.966Z,13.2
2023-04-28T20:47:40.228Z,12.9
2023-04-28T20:50:08.483Z,12.5
2023-04-28T20:55:04.996Z,12.1
2023-04-28T20:57:33.254Z,12.2
2023-04-28T21:00:01.512Z,12.1
2023-04-28T21:02:29.769Z,12.2
2023-04-28T21:04:58.025Z,12
2023-04-28T21:07:26.316Z,11.6
2023-04-28T21:08:41.009Z,11.6
2023-04-28T21:09:54.558Z,11.6
2023-04-28T21:12:22.810Z,12.1
2023-04-28T21:14:51.064Z,12.1
2023-04-28T21:17:19.321Z,11.7
2023-04-28T21:19:47.582Z,12.9
2023-04-28T21:22:15.836Z,11.7
2023-04-28T21:27:12.356Z,12
2023-04-28T21:29:40.607Z,11.1
2023-04-28T21:32:08.872Z,12.2
2023-04-28T21:33:23.598Z,12.5
2023-04-28T21:34:37.149Z,12.3
2023-04-28T21:37:05.404Z,12.4
2023-04-28T21:39:33.656Z,11.6
2023-04-28T21:42:01.919Z,11.9
2023-04-28T21:44:30.172Z,11.8
2023-04-28T21:46:58.435Z,12
2023-04-28T21:49:26.691Z,12
2023-04-28T21:51:54.943Z,11.1
2023-04-28T21:54:23.199Z,11.7
2023-04-28T21:58:06.192Z,11.5
2023-04-28T21:59:19.739Z,12
2023-04-28T22:01:47.996Z,11.9
2023-04-28T22:04:16.250Z,12
2023-04-28T22:06:44.508Z,11.7
2023-04-28T22:09:12.764Z,11.8
2023-04-28T22:11:41.019Z,12.1
2023-04-28T22:14:09.281Z,11.7
2023-04-28T22:16:37.535Z,12.6
2023-04-28T22:19:05.797Z,11.3
2023-04-28T22:21:34.052Z,11.5
2023-04-28T22:22:48.780Z,12.1
2023-04-28T22:24:02.327Z,11.6
2023-04-28T22:28:58.839Z,12.2
2023-04-28T22:31:27.095Z,12.1
2023-04-28T22:33:55.360Z,11.7
2023-04-28T22:36:23.614Z,11.8
2023-04-28T22:38:51.874Z,12.6
2023-04-28T22:41:20.125Z,12.1
2023-04-28T22:43:48.388Z,13
2023-04-28T22:46:16.640Z,12.2
2023-04-28T22:47:31.374Z,11.9
2023-04-28T22:48:44.915Z,12.8
2023-04-28T22:51:13.172Z,12.1
2023-04-28T22:53:41.432Z,11.8
2023-04-28T22:56:09.684Z,11.8
2023-04-28T23:01:06.201Z,10.8
2023-04-28T23:03:34.461Z,11.7
2023-04-28T23:06:02.713Z,11.9
2023-04-28T23:08:30.973Z,11.2
2023-04-28T23:10:59.225Z,11.8
2023-04-28T23:12:13.959Z,11.5
2023-04-28T23:13:27.504Z,11.1
2023-04-28T23:15:55.764Z,11.7
2023-04-28T23:18:24.022Z,10.9
2023-04-28T23:20:52.280Z,11.3
2023-04-28T23:23:20.536Z,11
2023-04-28T23:25:48.793Z,11
2023-04-28T23:28:17.045Z,10.8
2023-04-28T23:33:13.559Z,11.6
2023-04-28T23:35:41.824Z,11
2023-04-28T23:36:56.548Z,10.1
2023-04-28T23:38:10.102Z,11.2
2023-04-28T23:40:38.358Z,11.3
2023-04-28T23:43:06.615Z,10.9
2023-04-28T23:45:34.871Z,10.2
2023-04-28T23:48:03.129Z,10.4
2023-04-28T23:50:31.379Z,11
2023-04-28T23:52:59.645Z,11.6
2023-04-28T23:55:27.897Z,11.3
2023-04-28T23:57:56.156Z,10.8
